createdAt,value
2023-03-21T00:02:05.070Z,6.40
2023-03-21T00:04:50.956Z,6.37
2023-03-21T00:07:24.476Z,6.29
2023-03-21T00:10:04.965Z,6.23
2023-03-21T00:12:45.536Z,6.23
2023-03-21T00:15:20.569Z,6.22
2023-03-21T00:17:54.424Z,6.18
2023-03-21T00:20:35.339Z,6.21
2023-03-21T00:23:07.491Z,6.55
2023-03-21T00:25:41.221Z,6.73
2023-03-21T00:28:11.166Z,6.73
2023-03-21T00:30:44.023Z,6.65
2023-03-21T00:33:22.642Z,6.60
2023-03-21T00:36:05.132Z,6.52
2023-03-21T00:38:41.098Z,6.44
2023-03-21T00:41:35.129Z,6.36
2023-03-21T00:44:26.829Z,6.27
2023-03-21T00:47:07.005Z,6.17
2023-03-21T00:49:44.977Z,6.14
2023-03-21T00:52:20.391Z,6.11
2023-03-21T00:54:56.409Z,6.31
2023-03-21T00:57:37.909Z,6.37
2023-03-21T01:00:12.590Z,6.40
2023-03-21T01:03:14.247Z,6.42
2023-03-21T01:06:04.861Z,6.31
2023-03-21T01:08:51.771Z,6.23
2023-03-21T01:11:24.826Z,6.17
2023-03-21T01:14:14.670Z,6.14
2023-03-21T01:16:51.395Z,6.06
2023-03-21T01:19:35.237Z,5.97
2023-03-21T01:22:20.293Z,5.98
2023-03-21T01:24:58.634Z,6.19
2023-03-21T01:27:35.342Z,6.36
2023-03-21T01:30:11.281Z,6.37
2023-03-21T01:32:47.618Z,6.20
2023-03-21T01:35:16.921Z,6.08
2023-03-21T01:37:49.440Z,5.99
2023-03-21T01:40:23.087Z,5.97
2023-03-21T01:42:54.788Z,5.95
2023-03-21T01:46:03.314Z,5.92
2023-03-21T01:49:16.625Z,5.91
2023-03-21T01:51:56.663Z,5.93
2023-03-21T01:54:31.788Z,6.25
2023-03-21T01:57:05.669Z,6.27
2023-03-21T01:59:43.857Z,6.22
2023-03-21T02:02:58.303Z,6.08
2023-03-21T02:06:02.600Z,5.94
2023-03-21T02:09:04.923Z,5.81
2023-03-21T02:11:34.865Z,5.70
2023-03-21T02:14:07.020Z,5.60
2023-03-21T02:16:58.061Z,5.56
2023-03-21T02:19:53.308Z,5.62
2023-03-21T02:23:00.648Z,5.64
2023-03-21T02:26:10.195Z,5.67
2023-03-21T02:28:56.596Z,5.76
2023-03-21T02:32:16.539Z,5.71
2023-03-21T02:35:52.352Z,5.56
2023-03-21T02:38:28.512Z,5.44
2023-03-21T02:41:19.110Z,5.35
2023-03-21T02:43:59.049Z,5.31
2023-03-21T02:46:45.436Z,5.25
2023-03-21T02:49:43.247Z,5.27
2023-03-21T02:52:32.113Z,5.36
2023-03-21T02:55:32.960Z,5.60
2023-03-21T02:58:13.379Z,5.63
2023-03-21T03:00:57.927Z,5.49
2023-03-21T03:03:37.171Z,5.40
2023-03-21T03:06:15.083Z,5.38
2023-03-21T03:09:02.648Z,5.38
2023-03-21T03:11:39.936Z,5.35
2023-03-21T03:14:44.353Z,5.30
2023-03-21T03:17:28.438Z,5.40
2023-03-21T03:20:32.704Z,5.71
2023-03-21T03:23:26.252Z,5.83
2023-03-21T03:26:08.914Z,5.81
2023-03-21T03:28:59.099Z,5.67
2023-03-21T03:31:36.886Z,5.58
2023-03-21T03:34:11.026Z,5.49
2023-03-21T03:36:43.901Z,5.40
2023-03-21T03:39:16.777Z,5.32
2023-03-21T03:42:27.710Z,5.27
2023-03-21T03:45:06.738Z,5.36
2023-03-21T03:47:54.164Z,5.68
2023-03-21T03:50:33.581Z,5.76
2023-03-21T03:53:18.589Z,5.62
2023-03-21T03:55:56.639Z,5.50
2023-03-21T03:58:33.572Z,5.46
2023-03-21T04:01:08.117Z,5.45
2023-03-21T04:03:49.763Z,5.42
2023-03-21T04:06:22.335Z,5.41
2023-03-21T04:08:53.487Z,5.44
2023-03-21T04:11:26.284Z,5.71
2023-03-21T04:13:56.660Z,5.87
2023-03-21T04:16:28.541Z,5.89
2023-03-21T04:18:59.027Z,5.77
2023-03-21T04:21:29.485Z,5.65
2023-03-21T04:24:09.180Z,5.57
2023-03-21T04:26:41.952Z,5.50
2023-03-21T04:29:31.232Z,5.55
2023-03-21T04:32:25.642Z,5.56
2023-03-21T04:35:09.129Z,5.57
2023-03-21T04:37:47.908Z,5.86
2023-03-21T04:40:20.797Z,5.95
2023-03-21T04:42:55.349Z,5.83
2023-03-21T04:45:24.560Z,5.70
2023-03-21T04:48:02.232Z,5.63
2023-03-21T04:50:38.075Z,5.61
2023-03-21T04:53:10.661Z,5.63
2023-03-21T04:55:46.794Z,5.67
2023-03-21T04:58:22.133Z,5.75
2023-03-21T05:00:53.286Z,6.08
2023-03-21T05:03:34.636Z,6.34
2023-03-21T05:06:19.387Z,6.42
2023-03-21T05:09:07.957Z,6.34
2023-03-21T05:12:03.483Z,6.32
2023-03-21T05:14:36.097Z,6.32
2023-03-21T05:17:15.553Z,6.30
2023-03-21T05:19:50.655Z,6.31
2023-03-21T05:22:21.402Z,6.34
2023-03-21T05:24:59.003Z,6.37
2023-03-21T05:27:45.486Z,6.38
2023-03-21T05:30:21.008Z,6.55
2023-03-21T05:33:43.200Z,6.80
2023-03-21T05:36:15.990Z,6.97
2023-03-21T05:38:48.940Z,6.98
2023-03-21T05:41:21.033Z,6.81
2023-03-21T05:43:50.989Z,6.63
2023-03-21T05:46:22.170Z,6.52
2023-03-21T05:48:52.511Z,6.46
2023-03-21T05:51:25.536Z,6.43
2023-03-21T05:54:20.262Z,6.43
2023-03-21T05:56:49.297Z,6.52
2023-03-21T05:59:51.880Z,6.78
2023-03-21T06:02:24.688Z,6.83
2023-03-21T06:04:54.811Z,6.83
2023-03-21T06:07:28.724Z,6.77
2023-03-21T06:09:57.601Z,6.73
2023-03-21T06:12:30.584Z,6.76
2023-03-21T06:15:08.712Z,6.82
2023-03-21T06:17:54.483Z,6.93
2023-03-21T06:20:28.204Z,7.32
2023-03-21T06:23:08.660Z,7.60
2023-03-21T06:25:39.358Z,7.65
2023-03-21T06:28:35.079Z,7.71
2023-03-21T06:31:10.585Z,7.84
2023-03-21T06:34:10.658Z,7.98
2023-03-21T06:36:48.187Z,8.24
2023-03-21T06:39:18.894Z,8.42
2023-03-21T06:41:47.948Z,8.56
2023-03-21T06:44:26.410Z,8.68
2023-03-21T06:47:06.278Z,8.76
2023-03-21T06:49:38.273Z,8.85
2023-03-21T06:52:11.830Z,9.22
2023-03-21T06:54:43.644Z,9.45
2023-03-21T06:57:22.359Z,9.43
2023-03-21T06:59:52.734Z,9.34
2023-03-21T07:02:27.578Z,9.28
2023-03-21T07:05:09.654Z,9.18
2023-03-21T07:07:39.357Z,9.15
2023-03-21T07:10:14.411Z,9.09
2023-03-21T07:13:04.883Z,9.09
2023-03-21T07:15:39.292Z,9.06
2023-03-21T07:18:10.756Z,9.04
2023-03-21T07:20:47.960Z,9.05
2023-03-21T07:24:14.588Z,9.12
2023-03-21T07:26:56.492Z,9.59
2023-03-21T07:29:49.992Z,9.72
2023-03-21T07:32:18.476Z,9.76
2023-03-21T07:34:51.055Z,9.82
2023-03-21T07:37:23.527Z,9.90
2023-03-21T07:39:58.726Z,9.97
2023-03-21T07:42:29.821Z,10.06
2023-03-21T07:45:04.838Z,10.12
2023-03-21T07:47:40.490Z,10.16
2023-03-21T07:50:11.741Z,10.21
2023-03-21T07:52:42.034Z,10.30
2023-03-21T07:55:12.299Z,10.40
2023-03-21T07:57:46.863Z,10.48
2023-03-21T08:00:23.808Z,10.55
2023-03-21T08:02:58.752Z,10.67
2023-03-21T08:05:44.451Z,11.05
2023-03-21T08:08:14.281Z,11.19
2023-03-21T08:10:45.206Z,11.20
2023-03-21T08:13:15.745Z,11.20
2023-03-21T08:15:45.859Z,11.23
2023-03-21T08:18:15.633Z,11.28
2023-03-21T08:20:44.953Z,11.34
2023-03-21T08:23:21.177Z,11.41
2023-03-21T08:25:54.603Z,11.48
2023-03-21T08:28:26.679Z,11.49
2023-03-21T08:31:09.216Z,11.50
2023-03-21T08:33:40.939Z,11.44
2023-03-21T08:36:12.095Z,11.41
2023-03-21T08:38:41.783Z,11.42
2023-03-21T08:41:13.109Z,11.46
2023-03-21T08:43:57.693Z,11.47
2023-03-21T08:46:34.040Z,11.48
2023-03-21T08:49:04.199Z,11.51
2023-03-21T08:51:35.506Z,11.62
2023-03-21T08:54:06.941Z,11.75
2023-03-21T08:56:38.228Z,11.87
2023-03-21T08:59:06.540Z,11.98
2023-03-21T09:01:40.877Z,12.10
2023-03-21T09:04:13.512Z,12.21
2023-03-21T09:06:45.275Z,12.32
2023-03-21T09:09:13.363Z,12.40
2023-03-21T09:11:45.815Z,12.48
2023-03-21T09:14:16.152Z,12.53
2023-03-21T09:16:44.990Z,12.57
2023-03-21T09:19:16.893Z,12.65
2023-03-21T09:21:47.010Z,12.73
2023-03-21T09:24:17.628Z,12.76
2023-03-21T09:26:53.214Z,12.83
2023-03-21T09:29:21.362Z,12.91
2023-03-21T09:32:18.606Z,13.02
2023-03-21T09:34:48.656Z,13.07
2023-03-21T09:37:17.243Z,13.05
2023-03-21T09:39:47.615Z,12.98
2023-03-21T09:42:56.565Z,12.93
2023-03-21T09:45:49.423Z,12.91
2023-03-21T09:49:18.513Z,12.91
2023-03-21T09:51:50.092Z,12.96
2023-03-21T09:57:41.362Z,13.07
2023-03-21T10:00:46.722Z,13.42
2023-03-21T10:03:29.217Z,13.64
2023-03-21T10:05:58.348Z,13.77
2023-03-21T10:08:30.168Z,13.87
2023-03-21T10:11:04.602Z,13.92
2023-03-21T10:13:37.498Z,13.92
2023-03-21T10:16:19.580Z,13.95
2023-03-21T10:18:47.623Z,13.94
2023-03-21T10:21:47.477Z,13.84
2023-03-21T10:24:13.363Z,13.72
2023-03-21T10:26:40.996Z,13.56
2023-03-21T10:29:16.498Z,13.54
2023-03-21T10:31:45.421Z,13.62
2023-03-21T10:34:27.061Z,13.70
2023-03-21T10:36:59.463Z,13.76
2023-03-21T10:39:38.833Z,13.77
2023-03-21T10:42:28.938Z,13.78
2023-03-21T10:44:57.393Z,13.86
2023-03-21T10:47:28.283Z,13.95
2023-03-21T10:50:11.878Z,14.04
2023-03-21T10:52:53.271Z,14.06
2023-03-21T10:55:32.786Z,13.99
2023-03-21T10:58:10.199Z,13.92
2023-03-21T11:00:41.639Z,13.92
2023-03-21T11:03:30.781Z,13.89
2023-03-21T11:06:05.682Z,13.76
2023-03-21T11:08:38.901Z,13.61
2023-03-21T11:11:15.274Z,13.46
2023-03-21T11:13:44.899Z,13.41
2023-03-21T11:16:26.660Z,13.42
2023-03-21T11:18:56.753Z,13.51
2023-03-21T11:21:29.689Z,13.64
2023-03-21T11:23:58.798Z,13.79
2023-03-21T11:26:37.949Z,13.91
2023-03-21T11:30:10.346Z,14.03
2023-03-21T11:32:38.221Z,14.10
2023-03-21T11:35:22.071Z,14.06
2023-03-21T11:38:01.591Z,14.03
2023-03-21T11:40:33.476Z,14.05
2023-03-21T11:43:19.876Z,14.10
2023-03-21T11:46:05.759Z,14.15
2023-03-21T11:48:41.702Z,14.22
2023-03-21T11:51:11.667Z,14.31
2023-03-21T11:54:18.749Z,14.39
2023-03-21T11:56:53.831Z,14.46
2023-03-21T11:59:37.290Z,14.41
2023-03-21T12:02:36.004Z,14.39
2023-03-21T12:05:16.698Z,14.44
2023-03-21T12:08:08.900Z,14.50
2023-03-21T12:10:46.678Z,14.58
2023-03-21T12:13:45.807Z,14.63
2023-03-21T12:16:21.844Z,14.59
2023-03-21T12:19:21.607Z,14.49
2023-03-21T12:21:55.165Z,14.46
2023-03-21T12:24:45.457Z,14.46
2023-03-21T12:27:22.997Z,14.48
2023-03-21T12:30:29.052Z,14.46
2023-03-21T12:33:41.092Z,14.46
2023-03-21T12:36:23.703Z,14.49
2023-03-21T12:39:05.144Z,14.51
2023-03-21T12:42:04.398Z,14.58
2023-03-21T12:44:36.050Z,14.64
2023-03-21T12:47:10.720Z,14.62
2023-03-21T12:49:48.674Z,14.61
2023-03-21T12:52:26.806Z,14.57
2023-03-21T12:55:10.615Z,14.53
2023-03-21T12:57:47.777Z,14.48
2023-03-21T13:00:53.542Z,14.47
2023-03-21T13:03:27.680Z,14.50
2023-03-21T13:06:08.637Z,14.46
2023-03-21T13:09:03.384Z,14.44
2023-03-21T13:11:31.021Z,14.44
2023-03-21T13:14:25.825Z,14.42
2023-03-21T13:17:50.041Z,14.44
2023-03-21T13:20:36.200Z,14.45
2023-03-21T13:23:07.727Z,14.45
2023-03-21T13:25:49.235Z,14.47
2023-03-21T13:28:28.817Z,14.46
2023-03-21T13:31:19.575Z,14.46
2023-03-21T13:33:50.598Z,14.46
2023-03-21T13:36:25.923Z,14.45
2023-03-21T13:39:01.803Z,14.45
2023-03-21T13:41:39.020Z,14.43
2023-03-21T13:44:41.250Z,14.43
2023-03-21T13:47:35.396Z,14.42
2023-03-21T13:50:17.075Z,14.40
2023-03-21T13:53:12.474Z,14.37
2023-03-21T13:55:46.205Z,14.44
2023-03-21T13:58:34.898Z,14.46
2023-03-21T14:01:25.910Z,14.45
2023-03-21T14:04:06.673Z,14.38
2023-03-21T14:06:42.452Z,14.30
2023-03-21T14:09:38.070Z,14.17
2023-03-21T14:12:08.225Z,14.03
2023-03-21T14:14:41.353Z,13.89
2023-03-21T14:17:24.910Z,13.78
2023-03-21T14:20:11.761Z,13.69
2023-03-21T14:22:42.799Z,13.59
2023-03-21T14:25:13.840Z,13.51
2023-03-21T14:27:44.290Z,13.44
2023-03-21T14:30:11.978Z,13.35
2023-03-21T14:32:42.571Z,13.27
2023-03-21T14:35:10.229Z,13.22
2023-03-21T14:37:43.609Z,13.16
2023-03-21T14:40:25.093Z,13.10
2023-03-21T14:42:52.875Z,12.99
2023-03-21T14:45:27.555Z,12.90
2023-03-21T14:48:01.122Z,12.82
2023-03-21T14:50:33.259Z,12.75
2023-03-21T14:53:00.500Z,12.76
2023-03-21T14:55:27.719Z,12.76
2023-03-21T14:57:59.258Z,12.76
2023-03-21T15:00:28.020Z,12.72
2023-03-21T15:02:55.324Z,12.72
2023-03-21T15:05:38.252Z,12.76
2023-03-21T15:08:08.431Z,12.81
2023-03-21T15:10:35.747Z,12.87
2023-03-21T15:13:20.582Z,12.92
2023-03-21T15:15:54.290Z,12.97
2023-03-21T15:18:35.347Z,12.99
2023-03-21T15:21:21.511Z,13.00
2023-03-21T15:24:15.299Z,13.01
2023-03-21T15:26:47.342Z,13.00
2023-03-21T15:29:17.769Z,12.99
2023-03-21T15:31:46.544Z,12.99
2023-03-21T15:34:28.008Z,12.97
2023-03-21T15:37:25.723Z,12.93
2023-03-21T15:39:55.205Z,12.86
2023-03-21T15:42:29.297Z,12.78
2023-03-21T15:45:02.078Z,12.73
2023-03-21T15:47:41.929Z,12.66
2023-03-21T15:50:32.553Z,12.60
2023-03-21T15:53:02.016Z,12.52
2023-03-21T15:55:35.636Z,12.45
2023-03-21T15:58:12.627Z,12.38
2023-03-21T16:00:43.486Z,12.30
2023-03-21T16:03:31.842Z,12.23
2023-03-21T16:06:14.898Z,12.17
2023-03-21T16:08:45.831Z,12.10
2023-03-21T16:11:20.411Z,12.03
2023-03-21T16:13:47.725Z,11.99
2023-03-21T16:16:26.298Z,11.94
2023-03-21T16:19:01.160Z,11.90
2023-03-21T16:21:30.096Z,11.84
2023-03-21T16:23:58.762Z,11.79
2023-03-21T16:26:31.510Z,11.76
2023-03-21T16:29:00.048Z,11.71
2023-03-21T16:31:32.429Z,11.66
2023-03-21T16:34:04.925Z,11.63
2023-03-21T16:36:36.214Z,11.59
2023-03-21T16:39:20.010Z,11.50
2023-03-21T16:41:51.782Z,11.54
2023-03-21T16:44:21.643Z,11.52
2023-03-21T16:46:50.102Z,11.46
2023-03-21T16:49:26.205Z,11.51
2023-03-21T16:52:01.616Z,11.51
2023-03-21T16:54:31.363Z,11.51
2023-03-21T16:57:02.665Z,11.50
2023-03-21T16:59:40.897Z,11.48
2023-03-21T17:02:37.056Z,11.48
2023-03-21T17:05:09.565Z,11.48
2023-03-21T17:07:38.466Z,11.46
2023-03-21T17:10:25.020Z,11.45
2023-03-21T17:12:56.342Z,11.45
2023-03-21T17:15:28.561Z,11.45
2023-03-21T17:17:57.534Z,11.45
2023-03-21T17:20:54.734Z,11.45
2023-03-21T17:23:22.596Z,11.43
2023-03-21T17:25:55.749Z,11.37
2023-03-21T17:28:24.637Z,11.40
2023-03-21T17:30:54.635Z,11.39
2023-03-21T17:33:23.829Z,11.41
2023-03-21T17:35:52.316Z,11.63
2023-03-21T17:38:23.850Z,11.75
2023-03-21T17:40:52.752Z,11.78
2023-03-21T17:43:24.557Z,11.73
2023-03-21T17:45:52.404Z,11.68
2023-03-21T17:48:21.405Z,11.69
2023-03-21T17:50:49.174Z,11.68
2023-03-21T17:53:19.384Z,11.70
2023-03-21T17:55:52.157Z,11.72
2023-03-21T17:58:21.763Z,11.70
2023-03-21T18:00:49.266Z,11.63
2023-03-21T18:03:22.328Z,11.58
2023-03-21T18:05:50.832Z,11.55
2023-03-21T18:08:20.569Z,11.53
2023-03-21T18:10:53.450Z,11.50
2023-03-21T18:13:24.137Z,11.48
2023-03-21T18:15:59.794Z,11.44
2023-03-21T18:18:39.590Z,11.38
2023-03-21T18:21:10.357Z,11.27
2023-03-21T18:23:41.142Z,11.19
2023-03-21T18:26:09.831Z,11.16
2023-03-21T18:29:00.297Z,11.10
2023-03-21T18:31:39.883Z,11.06
2023-03-21T18:34:09.353Z,11.02
2023-03-21T18:36:43.586Z,10.99
2023-03-21T18:39:13.112Z,10.97
2023-03-21T18:41:43.071Z,10.99
2023-03-21T18:44:16.688Z,11.10
2023-03-21T18:46:50.831Z,11.13
2023-03-21T18:50:05.497Z,11.15
2023-03-21T18:52:14.382Z,11.16
2023-03-21T18:54:43.843Z,11.11
2023-03-21T19:00:12.151Z,11.09
2023-03-21T19:02:45.562Z,11.08
2023-03-21T19:05:17.054Z,11.08
2023-03-21T19:07:46.068Z,11.07
2023-03-21T19:10:20.182Z,11.08
2023-03-21T19:12:54.410Z,11.09
2023-03-21T19:15:23.658Z,11.10
2023-03-21T19:20:50.196Z,11.09
2023-03-21T19:23:21.165Z,11.09
2023-03-21T19:26:37.025Z,11.10
2023-03-21T19:29:08.083Z,11.13
2023-03-21T19:31:37.404Z,11.14
2023-03-21T19:34:07.763Z,11.17
2023-03-21T19:36:37.275Z,11.20
2023-03-21T19:39:11.665Z,11.22
2023-03-21T19:41:40.738Z,11.22
2023-03-21T19:44:10.177Z,11.23
2023-03-21T19:46:37.591Z,11.21
2023-03-21T19:49:07.035Z,11.20
2023-03-21T19:51:43.624Z,11.20
2023-03-21T19:54:10.885Z,11.19
2023-03-21T19:56:47.102Z,11.18
2023-03-21T19:59:17.056Z,11.18
2023-03-21T20:01:56.972Z,11.17
2023-03-21T20:04:36.547Z,11.17
2023-03-21T20:07:24.669Z,11.17
2023-03-21T20:10:00.760Z,11.16
2023-03-21T20:12:37.858Z,11.15
2023-03-21T20:15:26.667Z,11.14
2023-03-21T20:18:23.409Z,11.16
2023-03-21T20:20:58.216Z,11.18
2023-03-21T20:23:29.862Z,11.18
2023-03-21T20:26:00.578Z,11.18
2023-03-21T20:28:28.964Z,11.16
2023-03-21T20:31:10.437Z,11.13
2023-03-21T20:33:41.250Z,11.11
2023-03-21T20:36:38.807Z,11.18
2023-03-21T20:39:01.112Z,11.24
2023-03-21T20:41:33.285Z,11.27
2023-03-21T20:46:53.567Z,11.37
2023-03-21T20:49:33.717Z,11.37
2023-03-21T20:54:54.102Z,11.36
2023-03-21T20:57:26.631Z,11.37
2023-03-21T20:59:59.159Z,11.38
2023-03-21T21:02:28.171Z,11.35
2023-03-21T21:05:24.567Z,11.31
2023-03-21T21:07:51.162Z,11.27
2023-03-21T21:10:22.375Z,11.23
2023-03-21T21:12:50.672Z,11.19
2023-03-21T21:15:19.689Z,11.16
2023-03-21T21:18:11.275Z,11.14
2023-03-21T21:20:42.552Z,11.10
2023-03-21T21:23:10.216Z,11.06
2023-03-21T21:25:41.955Z,11.04
2023-03-21T21:28:11.838Z,11.03
2023-03-21T21:30:47.357Z,11.01
2023-03-21T21:33:17.513Z,11.02
2023-03-21T21:35:47.641Z,11.01
2023-03-21T21:38:17.169Z,11.02
2023-03-21T21:41:08.027Z,10.99
2023-03-21T21:43:35.153Z,10.97
2023-03-21T21:46:03.313Z,10.94
2023-03-21T21:48:34.224Z,10.90
2023-03-21T21:51:03.351Z,10.88
2023-03-21T21:53:33.913Z,10.84
2023-03-21T21:56:03.192Z,10.78
2023-03-21T21:58:38.263Z,10.74
2023-03-21T22:01:08.928Z,10.68
2023-03-21T22:03:41.125Z,10.63
2023-03-21T22:06:10.334Z,10.59
2023-03-21T22:08:50.136Z,10.58
2023-03-21T22:11:22.175Z,10.57
2023-03-21T22:15:19.782Z,10.49
2023-03-21T22:17:51.020Z,10.68
2023-03-21T22:20:19.865Z,10.71
2023-03-21T22:22:50.650Z,10.68
2023-03-21T22:25:20.363Z,10.63
2023-03-21T22:27:52.574Z,10.56
2023-03-21T22:30:20.631Z,10.51
2023-03-21T22:33:08.907Z,10.49
2023-03-21T22:35:47.525Z,10.45
2023-03-21T22:38:25.030Z,10.45
2023-03-21T22:41:00.936Z,10.49
2023-03-21T22:43:33.989Z,10.49
2023-03-21T22:46:03.363Z,10.47
2023-03-21T22:48:35.984Z,10.43
2023-03-21T22:51:05.881Z,10.38
2023-03-21T22:53:41.757Z,10.25
2023-03-21T22:56:13.359Z,10.21
2023-03-21T22:58:45.864Z,10.14
2023-03-21T23:01:21.944Z,10.11
2023-03-21T23:03:51.896Z,10.04
2023-03-21T23:06:21.737Z,9.99
2023-03-21T23:08:50.028Z,9.98
2023-03-21T23:11:19.401Z,9.98
2023-03-21T23:13:51.588Z,10.00
2023-03-21T23:16:30.849Z,10.02
2023-03-21T23:18:58.622Z,10.06
2023-03-21T23:21:26.632Z,10.09
2023-03-21T23:23:56.228Z,10.13
2023-03-21T23:26:29.076Z,10.13
2023-03-21T23:29:01.510Z,10.17
2023-03-21T23:31:33.584Z,10.17
2023-03-21T23:34:00.725Z,10.16
2023-03-21T23:36:29.256Z,10.17
2023-03-21T23:39:03.912Z,10.18
2023-03-21T23:41:32.200Z,10.19
2023-03-21T23:44:01.959Z,10.18
2023-03-21T23:46:34.042Z,10.21
2023-03-21T23:49:04.178Z,10.22
2023-03-21T23:51:35.630Z,10.23
2023-03-21T23:54:04.958Z,10.23
2023-03-21T23:56:41.367Z,10.24
2023-03-21T23:59:20.163Z,10.24
